Time;durP1;ratioP1;P1;durP2;ratioP2;P2;SDS_P1;SDS_P2;PMS_P1;PMS_P2;Temp;Humidity;BMP_temperature;BMP_pressure;BME280_temperature;BME280_humidity;BME280_pressure;Samples;Min_cycle;Max_cycle;Signal;HPM_P1;HPM_P2
2024/02/17 08:06:19;;;;;;;19.42;6.25;;;;;;;;;;5024506;27;20221;-67
2024/02/17 08:08:46;;;;;;;13.32;5.72;;;;;;;;;;5013458;28;20045;-67
2024/02/17 08:11:13;;;;;;;17.88;7.28;;;;;;;;;;5029199;28;20068;-67
2024/02/17 08:13:42;;;;;;;20.90;7.15;;;;;;;;;;5031837;28;20060;-68
2024/02/17 08:16:11;;;;;;;16.92;6.90;;;;;;;;;;5030507;28;20041;-68
2024/02/17 08:18:42;;;;;;;18.90;6.70;;;;;;;;;;5013228;28;20132;-67
2024/02/17 08:21:10;;;;;;;21.52;6.82;;;;;;;;;;5041440;28;20049;-66
2024/02/17 08:23:39;;;;;;;18.88;6.63;;;;;;;;;;5035433;28;20041;-66
2024/02/17 08:26:11;;;;;;;14.02;6.22;;;;;;;;;;5034661;28;20436;-67
2024/02/17 08:28:51;;;;;;;16.65;6.78;;;;;;;;;;5017397;28;20059;-69
2024/02/17 08:31:18;;;;;;;21.75;6.75;;;;;;;;;;5060653;28;20053;-68
2024/02/17 08:33:48;;;;;;;16.63;6.72;;;;;;;;;;5063405;28;20052;-68
2024/02/17 08:36:15;;;;;;;17.25;7.72;;;;;;;;;;5049269;28;20188;-67
2024/02/17 08:38:44;;;;;;;25.73;8.35;;;;;;;;;;4998824;28;20138;-67
2024/02/17 08:41:11;;;;;;;;;;;;;;;;;;5035606;28;20072;-67
2024/02/17 08:43:38;;;;;;;16.17;5.93;;;;;;;;;;5026539;28;19940;-69
2024/02/17 08:46:05;;;;;;;21.80;6.70;;;;;;;;;;5023753;28;20099;-67
2024/02/17 08:48:37;;;;;;;16.75;6.40;;;;;;;;;;5024456;28;20480;-68
2024/02/17 08:51:06;;;;;;;13.48;5.93;;;;;;;;;;5047754;28;20053;-69
2024/02/17 08:53:35;;;;;;;;;;;;;;;;;;5043747;28;20087;-69
2024/02/17 08:56:04;;;;;;;15.90;5.55;;;;;;;;;;5061869;28;19948;-70
2024/02/17 08:58:43;;;;;;;15.13;6.25;;;;;;;;;;5027599;28;20049;-70
2024/02/17 09:01:16;;;;;;;;;;;;;;;;;;5053026;28;20103;-69
2024/02/17 09:03:45;;;;;;;13.10;5.07;;;;;;;;;;5060563;28;19924;-69
2024/02/17 09:06:12;;;;;;;25.58;8.68;;;;;;;;;;5047411;28;20389;-67
2024/02/17 09:08:39;;;;;;;38.38;14.73;;;;;;;;;;5039601;28;20057;-69
2024/02/17 09:11:08;;;;;;;17.17;7.18;;;;;;;;;;5059239;28;20116;-71
2024/02/17 09:13:35;;;;;;;18.42;7.50;;;;;;;;;;5032689;28;20059;-69
2024/02/17 09:16:02;;;;;;;30.67;7.50;;;;;;;;;;5054294;28;20488;-72
2024/02/17 09:18:29;;;;;;;23.88;7.25;;;;;;;;;;5026223;28;20045;-73
2024/02/17 09:20:56;;;;;;;20.13;7.10;;;;;;;;;;5016575;28;20199;-68
2024/02/17 09:23:26;;;;;;;16.35;6.88;;;;;;;;;;5036193;28;20573;-76
2024/02/17 09:25:53;;;;;;;20.13;7.15;;;;;;;;;;5050915;28;20045;-72
2024/02/17 09:28:28;;;;;;;18.65;7.10;;;;;;;;;;5022724;28;20057;-71
2024/02/17 09:30:59;;;;;;;20.52;7.28;;;;;;;;;;5049334;28;20068;-70
2024/02/17 09:33:28;;;;;;;16.13;6.88;;;;;;;;;;5054662;28;20037;-68
2024/02/17 09:35:55;;;;;;;18.83;7.30;;;;;;;;;;5035115;28;20171;-72
2024/02/17 09:38:22;;;;;;;15.73;6.90;;;;;;;;;;5019559;28;20072;-71
2024/02/17 09:40:51;;;;;;;16.77;6.90;;;;;;;;;;5050406;28;20053;-70
2024/02/17 09:43:18;;;;;;;18.20;7.07;;;;;;;;;;5037846;28;20056;-68
2024/02/17 09:45:47;;;;;;;16.23;7.28;;;;;;;;;;5051983;28;20052;-68
2024/02/17 09:48:14;;;;;;;35.45;12.52;;;;;;;;;;5032894;28;20044;-69
2024/02/17 09:50:44;;;;;;;33.97;14.65;;;;;;;;;;5029989;28;20112;-68
2024/02/17 09:53:13;;;;;;;18.75;7.97;;;;;;;;;;5038584;28;20339;-68
2024/02/17 09:55:46;;;;;;;17.73;6.60;;;;;;;;;;5037354;28;20127;-68
2024/02/17 09:58:13;;;;;;;16.48;6.45;;;;;;;;;;5050323;28;20141;-69
2024/02/17 10:00:40;;;;;;;15.70;7.00;;;;;;;;;;5042984;28;20056;-68
2024/02/17 10:03:09;;;;;;;17.67;7.10;;;;;;;;;;5048304;28;20138;-66
2024/02/17 10:05:36;;;;;;;15.25;6.72;;;;;;;;;;5053183;28;20102;-66
2024/02/17 10:08:08;;;;;;;18.25;7.00;;;;;;;;;;5044195;28;20048;-66
2024/02/17 10:10:38;;;;;;;17.77;6.88;;;;;;;;;;5034655;28;20137;-66
2024/02/17 10:13:06;;;;;;;17.58;6.25;;;;;;;;;;5032940;28;20164;-66
2024/02/17 10:15:33;;;;;;;20.73;8.23;;;;;;;;;;5037952;28;20060;-66
2024/02/17 10:18:00;;;;;;;16.52;7.05;;;;;;;;;;5053305;28;20142;-67
2024/02/17 10:20:29;;;;;;;16.67;6.90;;;;;;;;;;5045888;28;20541;-66
2024/02/17 10:22:57;;;;;;;;;;;;;;;;;;5032599;28;20734;-67
2024/02/17 10:25:24;;;;;;;14.57;5.63;;;;;;;;;;5033689;28;19924;-67
2024/02/17 10:27:51;;;;;;;17.95;6.85;;;;;;;;;;5052712;28;20060;-66
2024/02/17 10:30:20;;;;;;;19.17;7.15;;;;;;;;;;5039018;28;20107;-67
2024/02/17 10:32:48;;;;;;;;;;;;;;;;;;5040546;28;20045;-67
2024/02/17 10:35:16;;;;;;;17.38;5.85;;;;;;;;;;5035992;28;19967;-67
2024/02/17 10:37:48;;;;;;;14.43;5.47;;;;;;;;;;5044162;28;20138;-66
2024/02/17 10:40:17;;;;;;;16.70;6.22;;;;;;;;;;5024012;28;20056;-67
2024/02/17 10:43:28;;;;;;;20.30;7.18;;;;;;;;;;5031588;28;20068;-67
2024/02/17 10:45:56;;;;;;;18.52;6.35;;;;;;;;;;5023511;28;20119;-68
2024/02/17 10:48:25;;;;;;;18.58;6.78;;;;;;;;;;5031469;28;20099;-67
2024/02/17 10:50:54;;;;;;;13.30;5.57;;;;;;;;;;5059292;28;20053;-68
2024/02/17 10:53:31;;;;;;;17.05;6.10;;;;;;;;;;5039095;28;20068;-67
2024/02/17 10:56:00;;;;;;;16.90;6.75;;;;;;;;;;5035965;28;20055;-67
2024/02/17 10:58:30;;;;;;;16.65;6.75;;;;;;;;;;5030767;28;20053;-67
2024/02/17 11:00:57;;;;;;;11.75;5.45;;;;;;;;;;5035534;28;20048;-67
2024/02/17 11:03:28;;;;;;;22.27;6.20;;;;;;;;;;5037154;28;20142;-67
2024/02/17 11:05:59;;;;;;;19.17;5.82;;;;;;;;;;4965026;28;20058;-67
2024/02/17 11:08:29;;;;;;;17.48;5.85;;;;;;;;;;5019284;28;20054;-67
2024/02/17 11:10:56;;;;;;;20.65;7.05;;;;;;;;;;5030794;28;20068;-67
2024/02/17 11:13:24;;;;;;;16.13;5.95;;;;;;;;;;5034473;28;20041;-68
2024/02/17 11:16:04;;;;;;;19.20;7.30;;;;;;;;;;5043378;28;20132;-67
2024/02/17 11:18:45;;;;;;;21.67;7.20;;;;;;;;;;5016355;28;20051;-67
2024/02/17 11:21:13;;;;;;;25.25;6.72;;;;;;;;;;5009904;28;20072;-66
2024/02/17 11:23:42;;;;;;;22.98;7.25;;;;;;;;;;4984689;28;20062;-66
2024/02/17 11:26:15;;;;;;;15.65;6.45;;;;;;;;;;4984116;28;20208;-67
2024/02/17 11:28:42;;;;;;;16.83;6.63;;;;;;;;;;4960459;28;20564;-69
2024/02/17 11:31:10;;;;;;;14.95;6.25;;;;;;;;;;4988085;28;20073;-67
2024/02/17 11:33:37;;;;;;;22.95;6.72;;;;;;;;;;4958460;28;20050;-67
2024/02/17 11:36:07;;;;;;;18.52;6.25;;;;;;;;;;4974349;28;20057;-66
2024/02/17 11:38:34;;;;;;;18.00;7.10;;;;;;;;;;4970356;28;20054;-66
2024/02/17 11:41:08;;;;;;;21.13;6.90;;;;;;;;;;4971635;28;20063;-66
2024/02/17 11:43:36;;;;;;;17.02;6.78;;;;;;;;;;4958606;28;20050;-67
2024/02/17 11:46:05;;;;;;;14.82;6.45;;;;;;;;;;4968231;28;20070;-66
2024/02/17 11:48:32;;;;;;;;;;;;;;;;;;4968422;28;20070;-67
2024/02/17 11:51:13;;;;;;;15.02;5.75;;;;;;;;;;4956688;28;20585;-67
2024/02/17 11:53:46;;;;;;;17.83;6.25;;;;;;;;;;4971104;28;20050;-65
2024/02/17 11:56:15;;;;;;;15.57;5.10;;;;;;;;;;4965988;28;20123;-65
2024/02/17 11:58:45;;;;;;;19.50;5.95;;;;;;;;;;4949005;28;20077;-69
2024/02/17 12:01:15;;;;;;;15.38;5.88;;;;;;;;;;4958185;28;20176;-68
2024/02/17 12:03:45;;;;;;;19.05;7.53;;;;;;;;;;5023590;28;20050;-68
2024/02/17 12:06:13;;;;;;;16.88;6.20;;;;;;;;;;4961135;28;20050;-66
2024/02/17 12:08:42;;;;;;;17.00;6.18;;;;;;;;;;4966455;28;20206;-66
2024/02/17 12:11:09;;;;;;;15.93;5.93;;;;;;;;;;4957442;28;20061;-66
2024/02/17 12:13:38;;;;;;;18.92;5.53;;;;;;;;;;4962469;28;20050;-67
2024/02/17 12:16:06;;;;;;;13.15;5.35;;;;;;;;;;4954534;28;20146;-67
2024/02/17 12:18:40;;;;;;;;;;;;;;;;;;4972216;28;20050;-67
2024/02/17 12:21:09;;;;;;;14.27;5.80;;;;;;;;;;4986570;28;19933;-67
2024/02/17 12:23:39;;;;;;;17.52;5.80;;;;;;;;;;4983751;28;20124;-67
2024/02/17 12:26:07;;;;;;;19.30;6.57;;;;;;;;;;4957772;28;20093;-71
2024/02/17 12:28:36;;;;;;;28.00;8.07;;;;;;;;;;4952172;28;20142;-66
2024/02/17 12:31:05;;;;;;;21.27;7.10;;;;;;;;;;4973614;28;20050;-68
2024/02/17 12:33:32;;;;;;;17.58;6.47;;;;;;;;;;4965436;28;20054;-67
2024/02/17 12:35:59;;;;;;;19.15;6.97;;;;;;;;;;4980422;28;20073;-67
2024/02/17 12:38:33;;;;;;;15.13;6.38;;;;;;;;;;4968023;28;20054;-66
2024/02/17 12:41:05;;;;;;;17.63;6.07;;;;;;;;;;5006210;28;20053;-67
2024/02/17 12:43:32;;;;;;;18.92;6.82;;;;;;;;;;4967367;28;20054;-67
2024/02/17 12:45:59;;;;;;;15.60;6.20;;;;;;;;;;4993649;28;20059;-66
2024/02/17 12:48:30;;;;;;;20.13;8.27;;;;;;;;;;4962525;28;20050;-66
2024/02/17 12:51:02;;;;;;;26.42;8.45;;;;;;;;;;4962598;28;20292;-67
2024/02/17 12:53:33;;;;;;;13.48;6.53;;;;;;;;;;4958276;28;20054;-67
2024/02/17 12:55:59;;;;;;;18.85;7.50;;;;;;;;;;4964789;28;20058;-66
2024/02/17 12:58:59;;;;;;;18.17;7.60;;;;;;;;;;4941246;28;20063;-66
2024/02/17 13:01:26;;;;;;;17.67;6.47;;;;;;;;;;4965545;28;20088;-66
2024/02/17 13:03:54;;;;;;;17.90;7.65;;;;;;;;;;4977812;28;20080;-66
2024/02/17 13:06:25;;;;;;;20.15;7.32;;;;;;;;;;4967260;28;20058;-66
2024/02/17 13:08:53;;;;;;;20.58;6.72;;;;;;;;;;4960716;28;20063;-66
2024/02/17 13:11:22;;;;;;;19.73;7.70;;;;;;;;;;4965307;28;20088;-67
2024/02/17 13:13:53;;;;;;;13.70;7.10;;;;;;;;;;4968063;28;20516;-66
2024/02/17 13:16:21;;;;;;;15.18;7.32;;;;;;;;;;4972581;28;20111;-67
2024/02/17 13:18:48;;;;;;;19.27;7.78;;;;;;;;;;4934190;28;20088;-66
2024/02/17 13:21:19;;;;;;;16.25;7.50;;;;;;;;;;4961531;28;20038;-65
2024/02/17 13:23:46;;;;;;;18.75;8.27;;;;;;;;;;4962025;28;20141;-69
2024/02/17 13:26:13;;;;;;;26.50;9.35;;;;;;;;;;4965052;28;20138;-67
2024/02/17 13:28:40;;;;;;;20.85;8.68;;;;;;;;;;4976746;28;20062;-67
2024/02/17 13:31:08;;;;;;;20.05;8.77;;;;;;;;;;4974309;28;20081;-67
2024/02/17 13:33:35;;;;;;;28.25;10.45;;;;;;;;;;4990196;28;20083;-67
2024/02/17 13:36:02;;;;;;;22.15;8.43;;;;;;;;;;4989306;28;20046;-66
2024/02/17 13:38:32;;;;;;;17.65;8.95;;;;;;;;;;4999048;28;20042;-67
2024/02/17 13:40:59;;;;;;;21.50;8.35;;;;;;;;;;4960607;28;20640;-67
2024/02/17 13:43:26;;;;;;;16.85;7.88;;;;;;;;;;4987983;28;20050;-71
2024/02/17 13:45:55;;;;;;;20.05;7.60;;;;;;;;;;4981551;28;20116;-67
2024/02/17 13:48:21;;;;;;;;;;;;;;;;;;4999049;28;20058;-67
2024/02/17 13:50:49;;;;;;;15.40;7.60;;;;;;;;;;5001527;28;19957;-66
2024/02/17 13:53:18;;;;;;;18.08;8.70;;;;;;;;;;4978135;28;20075;-67
2024/02/17 13:55:49;;;;;;;18.80;8.75;;;;;;;;;;4993511;28;20053;-66
2024/02/17 13:58:18;;;;;;;17.85;9.23;;;;;;;;;;4986630;28;20138;-67
2024/02/17 14:00:44;;;;;;;23.15;10.93;;;;;;;;;;4978685;28;20050;-67
2024/02/17 14:03:20;;;;;;;22.95;12.00;;;;;;;;;;5001630;28;20078;-67
2024/02/17 14:05:53;;;;;;;23.10;9.63;;;;;;;;;;4961215;28;20084;-66
2024/02/17 14:08:25;;;;;;;22.67;9.85;;;;;;;;;;4972289;28;20046;-66
2024/02/17 14:10:57;;;;;;;18.73;9.13;;;;;;;;;;4943036;28;20142;-67
2024/02/17 14:13:26;;;;;;;16.85;8.00;;;;;;;;;;4976871;28;20070;-66
2024/02/17 14:15:53;;;;;;;14.70;7.95;;;;;;;;;;5008301;28;20045;-67
2024/02/17 14:18:22;;;;;;;16.88;7.97;;;;;;;;;;5024743;28;20057;-69
2024/02/17 14:20:49;;;;;;;15.90;7.75;;;;;;;;;;4979556;28;20060;-68
2024/02/17 14:23:19;;;;;;;18.65;7.55;;;;;;;;;;5023098;28;20054;-68
2024/02/17 14:25:46;;;;;;;16.85;8.27;;;;;;;;;;5051323;28;20091;-68
2024/02/17 14:28:16;;;;;;;17.92;8.43;;;;;;;;;;4978062;28;20137;-68
2024/02/17 14:30:43;;;;;;;14.40;7.78;;;;;;;;;;4969905;28;20111;-68
2024/02/17 14:33:10;;;;;;;26.38;13.20;;;;;;;;;;4991242;28;20108;-68
2024/02/17 14:35:39;;;;;;;29.48;14.18;;;;;;;;;;4976447;28;20054;-68
2024/02/17 14:38:09;;;;;;;23.15;11.13;;;;;;;;;;4982821;28;20085;-68
2024/02/17 14:40:38;;;;;;;16.77;8.55;;;;;;;;;;4973598;28;20140;-72
2024/02/17 14:43:07;;;;;;;16.83;9.32;;;;;;;;;;4964284;28;20054;-68
2024/02/17 14:45:37;;;;;;;24.08;10.98;;;;;;;;;;5014328;28;20038;-68
2024/02/17 14:48:04;;;;;;;18.15;8.45;;;;;;;;;;5009720;28;20042;-68
2024/02/17 14:50:35;;;;;;;17.27;8.30;;;;;;;;;;5000407;28;20106;-68
2024/02/17 14:53:03;;;;;;;19.75;9.93;;;;;;;;;;4975808;28;20289;-67
2024/02/17 14:55:31;;;;;;;28.13;12.93;;;;;;;;;;4982403;28;20165;-67
2024/02/17 14:57:58;;;;;;;22.08;7.80;;;;;;;;;;4983652;28;20062;-68
2024/02/17 15:00:38;;;;;;;16.63;7.53;;;;;;;;;;4950754;28;20054;-68
2024/02/17 15:03:07;;;;;;;15.80;6.60;;;;;;;;;;4984992;28;20099;-68
2024/02/17 15:05:37;;;;;;;15.65;6.72;;;;;;;;;;4964235;28;20065;-68
2024/02/17 15:08:07;;;;;;;15.52;5.90;;;;;;;;;;4956985;28;20051;-68
2024/02/17 15:10:34;;;;;;;20.20;6.82;;;;;;;;;;4960280;28;20494;-68
2024/02/17 15:13:12;;;;;;;14.15;5.68;;;;;;;;;;4974134;28;20062;-67
2024/02/17 15:15:48;;;;;;;12.95;5.55;;;;;;;;;;5005815;28;20116;-67
2024/02/17 15:18:23;;;;;;;12.95;5.05;;;;;;;;;;4967406;28;20056;-67
2024/02/17 15:20:55;;;;;;;15.52;4.78;;;;;;;;;;4935464;28;20042;-66
2024/02/17 15:23:22;;;;;;;13.23;5.45;;;;;;;;;;4969330;28;20074;-67
2024/02/17 15:25:49;;;;;;;11.65;5.80;;;;;;;;;;4980594;28;20057;-67
2024/02/17 15:28:23;;;;;;;14.30;5.25;;;;;;;;;;4975017;28;20051;-68
2024/02/17 15:30:55;;;;;;;;;;;;;;;;;;4936408;28;20076;-67
2024/02/17 15:33:26;;;;;;;12.00;4.28;;;;;;;;;;4974699;28;19926;-67
2024/02/17 15:35:55;;;;;;;12.27;4.63;;;;;;;;;;4999638;28;20050;-68
2024/02/17 15:38:28;;;;;;;13.38;4.70;;;;;;;;;;5041462;28;20065;-67
2024/02/17 15:41:03;;;;;;;9.48;4.28;;;;;;;;;;4983985;28;20954;-67
2024/02/17 15:43:33;;;;;;;13.50;5.00;;;;;;;;;;4984882;28;20130;-67
2024/02/17 15:46:02;;;;;;;9.45;4.15;;;;;;;;;;4973011;28;20064;-67
2024/02/17 15:48:37;;;;;;;14.07;4.13;;;;;;;;;;5024567;28;20163;-67
2024/02/17 15:51:10;;;;;;;12.90;4.53;;;;;;;;;;4949592;28;20061;-68
2024/02/17 15:53:39;;;;;;;12.88;4.68;;;;;;;;;;4997754;28;20054;-67
2024/02/17 15:56:10;;;;;;;15.63;4.60;;;;;;;;;;4974624;28;20062;-68
2024/02/17 15:58:46;;;;;;;11.20;5.00;;;;;;;;;;4973501;28;20111;-70
2024/02/17 16:01:16;;;;;;;15.68;6.60;;;;;;;;;;5012283;28;20076;-67
2024/02/17 16:03:48;;;;;;;35.45;14.75;;;;;;;;;;5013320;28;20066;-67
2024/02/17 16:06:17;;;;;;;21.67;7.82;;;;;;;;;;4951523;28;20047;-67
2024/02/17 16:08:48;;;;;;;10.57;5.05;;;;;;;;;;4933514;28;20145;-67
2024/02/17 16:11:18;;;;;;;17.27;5.75;;;;;;;;;;4885460;28;20170;-68
2024/02/17 16:13:45;;;;;;;13.00;5.05;;;;;;;;;;4951785;28;20168;-68
2024/02/17 16:16:19;;;;;;;14.30;5.05;;;;;;;;;;4938540;28;20050;-68
2024/02/17 16:18:52;;;;;;;12.48;4.70;;;;;;;;;;4936784;28;20051;-68
2024/02/17 16:21:24;;;;;;;13.23;4.65;;;;;;;;;;4890857;28;20342;-68
2024/02/17 16:23:52;;;;;;;14.02;4.78;;;;;;;;;;4946544;28;20063;-68
2024/02/17 16:26:20;;;;;;;8.77;4.38;;;;;;;;;;4940084;28;20051;-67
2024/02/17 16:28:47;;;;;;;9.23;4.68;;;;;;;;;;4967666;28;20057;-67
2024/02/17 16:31:23;;;;;;;10.43;4.90;;;;;;;;;;4953100;28;20181;-67
2024/02/17 16:33:52;;;;;;;9.32;4.22;;;;;;;;;;4955654;28;20464;-67
2024/02/17 16:36:27;;;;;;;10.38;4.82;;;;;;;;;;4949859;28;20058;-68
2024/02/17 16:39:07;;;;;;;13.43;5.30;;;;;;;;;;4938685;28;20062;-67
2024/02/17 16:41:38;;;;;;;12.15;4.78;;;;;;;;;;4910737;28;20062;-67
2024/02/17 16:44:08;;;;;;;16.25;5.20;;;;;;;;;;4939968;28;20067;-67
2024/02/17 16:46:35;;;;;;;13.10;5.00;;;;;;;;;;4936792;28;20142;-67
2024/02/17 16:49:12;;;;;;;15.30;4.85;;;;;;;;;;4936223;28;20059;-68
2024/02/17 16:52:04;;;;;;;12.43;5.43;;;;;;;;;;4926367;28;20051;-67
2024/02/17 16:54:31;;;;;;;10.27;4.93;;;;;;;;;;4937881;28;20055;-67
2024/02/17 16:57:03;;;;;;;12.23;5.05;;;;;;;;;;4952452;28;20341;-68
2024/02/17 16:59:31;;;;;;;16.95;5.88;;;;;;;;;;4917291;28;20047;-67
2024/02/17 17:02:03;;;;;;;13.15;5.18;;;;;;;;;;4936391;28;20067;-67
2024/02/17 17:04:35;;;;;;;11.27;5.13;;;;;;;;;;4943392;28;20073;-66
2024/02/17 17:18:57;;;;;;;40.85;19.25;;;;;;;;;;4817223;29;20052;-69
2024/02/17 17:25:18;;;;;;;16.35;5.90;;;;;;;;;;4822858;29;20057;-69
2024/02/17 17:27:45;;;;;;;15.40;5.72;;;;;;;;;;4860369;28;20146;-69
2024/02/17 17:30:14;;;;;;;16.65;5.93;;;;;;;;;;4869648;28;20054;-69
2024/02/17 17:32:41;;;;;;;15.77;6.25;;;;;;;;;;4994474;28;20053;-69
2024/02/17 17:35:13;;;;;;;15.85;6.03;;;;;;;;;;4987349;28;20145;-70
2024/02/17 17:37:40;;;;;;;17.67;6.88;;;;;;;;;;4968520;28;20137;-69
2024/02/17 17:40:09;;;;;;;17.30;6.85;;;;;;;;;;4954092;28;20084;-69
2024/02/17 17:42:42;;;;;;;20.70;7.00;;;;;;;;;;4954615;28;20050;-69
2024/02/17 17:48:08;;;;;;;15.60;6.57;;;;;;;;;;4978117;28;20042;-69
2024/02/17 17:50:38;;;;;;;24.98;7.50;;;;;;;;;;4956478;28;20059;-69
2024/02/17 17:53:14;;;;;;;18.95;7.20;;;;;;;;;;4975180;28;20057;-72
2024/02/17 17:55:41;;;;;;;15.77;6.88;;;;;;;;;;4969071;28;20042;-69
2024/02/17 17:58:09;;;;;;;17.23;6.72;;;;;;;;;;4980325;28;20050;-69
2024/02/17 18:00:46;;;;;;;14.90;7.20;;;;;;;;;;4976908;28;20063;-69
2024/02/17 18:03:17;;;;;;;16.13;6.13;;;;;;;;;;4997248;28;20054;-71
2024/02/17 18:05:44;;;;;;;18.38;6.45;;;;;;;;;;4986077;28;20058;-69
2024/02/17 18:08:13;;;;;;;15.32;6.72;;;;;;;;;;4980571;28;20074;-69
2024/02/17 18:10:40;;;;;;;;;;;;;;;;;;4979323;28;20093;-72
2024/02/17 18:13:07;;;;;;;12.55;6.40;;;;;;;;;;5005767;28;19926;-69
2024/02/17 18:15:36;;;;;;;14.07;6.87;;;;;;;;;;4973489;28;20325;-70
2024/02/17 18:18:04;;;;;;;17.38;6.43;;;;;;;;;;4974547;28;20067;-68
2024/02/17 18:20:32;;;;;;;12.85;6.22;;;;;;;;;;4984051;28;20112;-69
2024/02/17 18:22:59;;;;;;;11.60;6.05;;;;;;;;;;5024930;28;20065;-69
2024/02/17 18:25:33;;;;;;;19.77;6.60;;;;;;;;;;4977910;28;20047;-69
2024/02/17 18:28:00;;;;;;;17.15;7.20;;;;;;;;;;4981624;28;20165;-69
2024/02/17 18:30:29;;;;;;;14.63;6.47;;;;;;;;;;5006687;28;20050;-68
2024/02/17 18:32:59;;;;;;;15.02;6.38;;;;;;;;;;4983156;28;20046;-68
2024/02/17 18:35:26;;;;;;;15.15;6.93;;;;;;;;;;4948872;28;20054;-68
2024/02/17 18:37:54;;;;;;;17.58;7.00;;;;;;;;;;4974204;28;20058;-68
2024/02/17 18:40:21;;;;;;;17.38;7.13;;;;;;;;;;4972535;28;20135;-68
2024/02/17 18:42:47;;;;;;;25.15;10.48;;;;;;;;;;5020369;28;20077;-69
2024/02/17 18:45:15;;;;;;;24.17;11.25;;;;;;;;;;4979566;28;20140;-68
2024/02/17 18:47:42;;;;;;;25.27;11.38;;;;;;;;;;5000289;28;20100;-69
2024/02/17 18:50:10;;;;;;;22.35;8.45;;;;;;;;;;4969497;28;20081;-68
2024/02/17 18:52:44;;;;;;;18.90;8.20;;;;;;;;;;5005803;28;20058;-69
2024/02/17 18:55:16;;;;;;;19.77;7.57;;;;;;;;;;4975544;28;20143;-68
2024/02/17 18:57:47;;;;;;;20.48;8.07;;;;;;;;;;4974264;28;20047;-79
2024/02/17 19:00:14;;;;;;;17.70;7.72;;;;;;;;;;4977378;28;20062;-68
2024/02/17 19:02:42;;;;;;;16.67;7.40;;;;;;;;;;5038527;28;20054;-69
2024/02/17 19:05:15;;;;;;;19.10;7.47;;;;;;;;;;4976778;28;20062;-69
2024/02/17 19:07:44;;;;;;;22.00;8.45;;;;;;;;;;4971128;28;20049;-70
2024/02/17 19:10:12;;;;;;;21.70;8.65;;;;;;;;;;4986811;28;20068;-68
2024/02/17 19:12:41;;;;;;;20.52;7.75;;;;;;;;;;5044083;28;20051;-68
2024/02/17 19:15:11;;;;;;;19.15;7.45;;;;;;;;;;4987691;28;20065;-66
2024/02/17 19:17:40;;;;;;;21.98;8.90;;;;;;;;;;4965975;28;20062;-67
2024/02/17 19:20:10;;;;;;;20.25;9.38;;;;;;;;;;4962725;28;20078;-67
2024/02/17 19:22:42;;;;;;;22.30;9.43;;;;;;;;;;4959979;28;20051;-67
2024/02/17 19:25:11;;;;;;;24.05;8.90;;;;;;;;;;4954126;28;20065;-67
2024/02/17 19:27:38;;;;;;;21.27;9.55;;;;;;;;;;4964433;28;20046;-69
2024/02/17 19:30:08;;;;;;;22.02;9.57;;;;;;;;;;4978326;28;20076;-67
2024/02/17 19:32:45;;;;;;;;;;;;;;;;;;;;;
2024/02/17 19:35:12;;;;;;;23.95;8.75;;;;;;;;;;4959303;28;20063;-68
2024/02/17 19:37:42;;;;;;;20.45;8.88;;;;;;;;;;4975607;28;20076;-68
2024/02/17 19:40:11;;;;;;;20.20;9.32;;;;;;;;;;4990798;28;20054;-69
2024/02/17 19:42:42;;;;;;;17.98;8.85;;;;;;;;;;4966424;28;20061;-69
2024/02/17 19:45:09;;;;;;;16.90;8.15;;;;;;;;;;4979158;28;20047;-66
2024/02/17 19:47:38;;;;;;;19.50;8.13;;;;;;;;;;4962299;28;20070;-67
2024/02/17 19:50:09;;;;;;;21.38;8.75;;;;;;;;;;4956256;28;20054;-66
2024/02/17 19:52:36;;;;;;;17.27;8.07;;;;;;;;;;4958466;28;20055;-68
2024/02/17 19:55:09;;;;;;;18.25;8.13;;;;;;;;;;4962280;28;20272;-68
2024/02/17 19:57:36;;;;;;;18.23;8.23;;;;;;;;;;4957940;28;20054;-68
2024/02/17 20:00:14;;;;;;;20.27;8.20;;;;;;;;;;4974539;28;20085;-68
2024/02/17 20:02:44;;;;;;;16.58;6.85;;;;;;;;;;5027764;28;20054;-68
2024/02/17 20:05:11;;;;;;;23.65;8.60;;;;;;;;;;4970494;28;20139;-68
2024/02/17 20:07:44;;;;;;;24.23;7.88;;;;;;;;;;4969514;28;20050;-67
2024/02/17 20:10:49;;;;;;;14.88;7.25;;;;;;;;;;4924246;28;20074;-68
2024/02/17 20:13:17;;;;;;;16.42;7.50;;;;;;;;;;4921663;28;20058;-66
2024/02/17 20:15:44;;;;;;;17.13;7.80;;;;;;;;;;4952276;28;20047;-68
2024/02/17 20:18:11;;;;;;;13.68;6.60;;;;;;;;;;4948375;28;20066;-67
2024/02/17 20:20:37;;;;;;;16.35;7.45;;;;;;;;;;4914843;28;20086;-69
2024/02/17 20:23:04;;;;;;;21.00;7.43;;;;;;;;;;4939274;28;20131;-67
2024/02/17 20:25:31;;;;;;;17.15;7.68;;;;;;;;;;4949223;28;20039;-68
2024/02/17 20:27:59;;;;;;;18.05;7.40;;;;;;;;;;4953603;28;20050;-66
2024/02/17 20:30:26;;;;;;;17.00;8.90;;;;;;;;;;4929991;28;20062;-67
2024/02/17 20:32:56;;;;;;;17.98;7.28;;;;;;;;;;4945399;28;20499;-66
2024/02/17 20:35:23;;;;;;;21.45;8.35;;;;;;;;;;4945167;28;20151;-69
2024/02/17 20:37:50;;;;;;;24.38;10.30;;;;;;;;;;4950287;28;20051;-69
2024/02/17 20:40:21;;;;;;;18.83;8.02;;;;;;;;;;4931004;28;20062;-67
2024/02/17 20:42:51;;;;;;;16.98;6.38;;;;;;;;;;4962132;28;20058;-66
2024/02/17 20:45:24;;;;;;;13.45;5.45;;;;;;;;;;4965511;28;20055;-69
2024/02/17 20:47:58;;;;;;;14.02;4.97;;;;;;;;;;4960507;28;20051;-69
2024/02/17 20:50:29;;;;;;;13.40;5.25;;;;;;;;;;5004785;28;20070;-67
2024/02/17 20:52:57;;;;;;;13.20;4.82;;;;;;;;;;4954027;28;20506;-67
2024/02/17 20:55:23;;;;;;;14.57;4.93;;;;;;;;;;4946232;28;20104;-67
2024/02/17 20:57:53;;;;;;;11.75;5.13;;;;;;;;;;4942632;28;20058;-69
2024/02/17 21:00:22;;;;;;;10.70;4.60;;;;;;;;;;4927142;28;20073;-68
2024/02/17 21:02:49;;;;;;;12.52;4.85;;;;;;;;;;4942324;28;20050;-66
2024/02/17 21:05:16;;;;;;;14.05;4.57;;;;;;;;;;4953755;28;20061;-68
2024/02/17 21:07:47;;;;;;;11.32;4.47;;;;;;;;;;4966432;28;20154;-67
2024/02/17 21:10:14;;;;;;;13.30;4.47;;;;;;;;;;4971796;28;20059;-68
2024/02/17 21:12:40;;;;;;;12.48;4.57;;;;;;;;;;4942456;28;20047;-67
2024/02/17 21:15:09;;;;;;;11.13;4.38;;;;;;;;;;4954305;28;20055;-66
2024/02/17 21:17:38;;;;;;;13.65;4.85;;;;;;;;;;4972220;28;20108;-67
2024/02/17 21:20:07;;;;;;;14.65;4.60;;;;;;;;;;4967621;28;20062;-70
2024/02/17 21:22:34;;;;;;;12.13;4.13;;;;;;;;;;4932781;28;20054;-68
2024/02/17 21:25:02;;;;;;;11.85;4.32;;;;;;;;;;4948120;28;20073;-69
2024/02/17 21:27:30;;;;;;;;;;;;;;;;;;4977098;28;20208;-68
2024/02/17 21:29:56;;;;;;;11.73;4.22;;;;;;;;;;4947782;28;19960;-69
2024/02/17 21:32:23;;;;;;;13.45;4.53;;;;;;;;;;4946529;28;20307;-68
2024/02/17 21:34:51;;;;;;;18.25;4.97;;;;;;;;;;4953943;28;20126;-66
2024/02/17 21:37:19;;;;;;;15.70;4.80;;;;;;;;;;4952079;28;20055;-66
2024/02/17 21:39:50;;;;;;;9.40;5.10;;;;;;;;;;4948917;28;20059;-69
2024/02/17 21:42:16;;;;;;;13.55;6.15;;;;;;;;;;4950375;28;20472;-68
2024/02/17 21:44:46;;;;;;;14.25;6.60;;;;;;;;;;4954304;28;20051;-66
2024/02/17 21:47:14;;;;;;;14.20;7.13;;;;;;;;;;4949481;28;20207;-67
2024/02/17 21:49:44;;;;;;;13.95;6.70;;;;;;;;;;4963931;28;20065;-68
2024/02/17 21:52:12;;;;;;;10.90;5.10;;;;;;;;;;4932024;28;20063;-69
2024/02/17 21:54:44;;;;;;;13.18;5.43;;;;;;;;;;4938109;28;20061;-67
2024/02/17 21:57:11;;;;;;;18.38;6.00;;;;;;;;;;4956706;28;20055;-67
2024/02/17 21:59:38;;;;;;;13.50;5.30;;;;;;;;;;4969089;28;20058;-66
2024/02/17 22:02:05;;;;;;;11.23;4.45;;;;;;;;;;4945925;28;20066;-66
2024/02/17 22:04:32;;;;;;;11.80;4.68;;;;;;;;;;4967105;28;20059;-68
2024/02/17 22:06:59;;;;;;;18.67;5.75;;;;;;;;;;4951147;28;20068;-68
2024/02/17 22:09:27;;;;;;;13.35;5.80;;;;;;;;;;4935817;28;20054;-66
2024/02/17 22:11:53;;;;;;;12.75;5.43;;;;;;;;;;4924636;28;20126;-66
2024/02/17 22:14:27;;;;;;;13.05;5.90;;;;;;;;;;4945192;28;20051;-68
2024/02/17 22:16:54;;;;;;;14.77;5.82;;;;;;;;;;4929881;28;20540;-68
2024/02/17 22:19:21;;;;;;;13.43;5.78;;;;;;;;;;4964167;28;20054;-66
2024/02/17 22:21:49;;;;;;;12.13;4.70;;;;;;;;;;4930028;28;20085;-68
2024/02/17 22:24:17;;;;;;;12.35;4.55;;;;;;;;;;4942708;28;20059;-67
2024/02/17 22:26:45;;;;;;;13.85;4.28;;;;;;;;;;4962468;28;20055;-66
2024/02/17 22:29:15;;;;;;;10.27;4.03;;;;;;;;;;4925216;28;20060;-66
2024/02/17 22:31:42;;;;;;;8.32;3.50;;;;;;;;;;4917045;28;20544;-67
2024/02/17 22:34:10;;;;;;;15.73;3.88;;;;;;;;;;4949665;28;20071;-67
2024/02/17 22:36:43;;;;;;;9.07;3.63;;;;;;;;;;4928656;28;20134;-68
2024/02/17 22:39:10;;;;;;;9.32;3.63;;;;;;;;;;4972300;28;20369;-69
2024/02/17 22:41:36;;;;;;;11.02;3.10;;;;;;;;;;4917749;28;20067;-67
2024/02/17 22:44:05;;;;;;;9.68;3.58;;;;;;;;;;4933980;28;20178;-67
2024/02/17 22:46:32;;;;;;;9.95;3.30;;;;;;;;;;4924560;28;20056;-68
2024/02/17 22:49:03;;;;;;;11.38;3.75;;;;;;;;;;4938878;28;20932;-66
2024/02/17 22:51:30;;;;;;;11.30;3.20;;;;;;;;;;4914277;28;20138;-68
2024/02/17 22:53:57;;;;;;;13.25;3.17;;;;;;;;;;4923669;28;20047;-68
2024/02/17 22:56:24;;;;;;;9.95;3.38;;;;;;;;;;4948228;28;20108;-67
2024/02/17 22:58:50;;;;;;;8.73;3.15;;;;;;;;;;4917120;28;20059;-68
